sensor_id;sensor_type;location;lat;lon;timestamp;P1;durP1;ratioP1;P2;durP2;ratioP2
19396;SDS011;9834;48.076;11.878;2022-09-27T00:00:34;1.20;;;1.10;;
19396;SDS011;9834;48.076;11.878;2022-09-27T00:03:02;1.67;;;0.80;;
19396;SDS011;9834;48.076;11.878;2022-09-27T00:05:30;1.97;;;1.40;;
19396;SDS011;9834;48.076;11.878;2022-09-27T00:07:57;0.87;;;0.87;;
19396;SDS011;9834;48.076;11.878;2022-09-27T00:10:24;2.40;;;1.00;;
19396;SDS011;9834;48.076;11.878;2022-09-27T00:12:53;1.00;;;1.00;;
19396;SDS011;9834;48.076;11.878;2022-09-27T00:15:20;0.80;;;0.80;;
19396;SDS011;9834;48.076;11.878;2022-09-27T00:17:47;1.70;;;1.27;;
19396;SDS011;9834;48.076;11.878;2022-09-27T00:20:16;0.63;;;0.63;;
19396;SDS011;9834;48.076;11.878;2022-09-27T00:22:46;0.87;;;0.83;;
19396;SDS011;9834;48.076;11.878;2022-09-27T00:25:15;1.10;;;1.00;;
19396;SDS011;9834;48.076;11.878;2022-09-27T00:27:43;1.43;;;1.23;;
19396;SDS011;9834;48.076;11.878;2022-09-27T00:30:10;1.33;;;1.13;;
19396;SDS011;9834;48.076;11.878;2022-09-27T00:32:38;1.20;;;1.10;;
19396;SDS011;9834;48.076;11.878;2022-09-27T00:35:05;1.03;;;1.00;;
19396;SDS011;9834;48.076;11.878;2022-09-27T00:37:33;1.17;;;1.07;;
19396;SDS011;9834;48.076;11.878;2022-09-27T00:40:02;9.30;;;1.20;;
19396;SDS011;9834;48.076;11.878;2022-09-27T00:42:29;1.43;;;1.03;;
19396;SDS011;9834;48.076;11.878;2022-09-27T00:45:00;1.43;;;1.33;;
19396;SDS011;9834;48.076;11.878;2022-09-27T00:47:35;1.30;;;1.20;;
19396;SDS011;9834;48.076;11.878;2022-09-27T00:50:08;2.33;;;1.03;;
19396;SDS011;9834;48.076;11.878;2022-09-27T00:52:43;1.80;;;1.10;;
19396;SDS011;9834;48.076;11.878;2022-09-27T00:55:23;0.90;;;0.90;;
19396;SDS011;9834;48.076;11.878;2022-09-27T00:57:54;1.00;;;0.90;;
19396;SDS011;9834;48.076;11.878;2022-09-27T01:00:22;1.73;;;1.20;;
19396;SDS011;9834;48.076;11.878;2022-09-27T01:02:50;1.37;;;1.07;;
19396;SDS011;9834;48.076;11.878;2022-09-27T01:05:21;1.50;;;0.87;;
19396;SDS011;9834;48.076;11.878;2022-09-27T01:07:50;1.40;;;0.73;;
19396;SDS011;9834;48.076;11.878;2022-09-27T01:10:22;1.37;;;0.83;;
19396;SDS011;9834;48.076;11.878;2022-09-27T01:12:53;1.57;;;1.47;;
19396;SDS011;9834;48.076;11.878;2022-09-27T01:15:33;1.60;;;1.20;;
19396;SDS011;9834;48.076;11.878;2022-09-27T01:18:10;1.27;;;1.17;;
19396;SDS011;9834;48.076;11.878;2022-09-27T01:21:03;1.57;;;1.10;;
19396;SDS011;9834;48.076;11.878;2022-09-27T01:26:53;2.47;;;1.60;;
19396;SDS011;9834;48.076;11.878;2022-09-27T01:29:44;0.77;;;0.77;;
19396;SDS011;9834;48.076;11.878;2022-09-27T01:32:26;1.43;;;1.13;;
19396;SDS011;9834;48.076;11.878;2022-09-27T01:34:59;1.03;;;0.97;;
19396;SDS011;9834;48.076;11.878;2022-09-27T01:37:32;2.47;;;1.57;;
19396;SDS011;9834;48.076;11.878;2022-09-27T01:40:06;1.13;;;1.03;;
19396;SDS011;9834;48.076;11.878;2022-09-27T01:42:43;1.20;;;1.10;;
19396;SDS011;9834;48.076;11.878;2022-09-27T01:45:16;0.83;;;0.83;;
19396;SDS011;9834;48.076;11.878;2022-09-27T01:47:51;1.17;;;1.03;;
19396;SDS011;9834;48.076;11.878;2022-09-27T01:50:23;1.20;;;1.10;;
19396;SDS011;9834;48.076;11.878;2022-09-27T01:52:55;2.63;;;1.03;;
19396;SDS011;9834;48.076;11.878;2022-09-27T01:55:29;1.43;;;1.33;;
19396;SDS011;9834;48.076;11.878;2022-09-27T01:58:00;2.10;;;1.33;;
19396;SDS011;9834;48.076;11.878;2022-09-27T02:00:36;0.97;;;0.97;;
19396;SDS011;9834;48.076;11.878;2022-09-27T02:03:08;2.43;;;1.33;;
19396;SDS011;9834;48.076;11.878;2022-09-27T02:05:39;2.63;;;1.50;;
19396;SDS011;9834;48.076;11.878;2022-09-27T02:08:12;1.60;;;1.17;;
19396;SDS011;9834;48.076;11.878;2022-09-27T02:10:43;1.40;;;1.30;;
19396;SDS011;9834;48.076;11.878;2022-09-27T02:13:14;0.80;;;0.80;;
19396;SDS011;9834;48.076;11.878;2022-09-27T02:15:48;1.17;;;0.87;;
19396;SDS011;9834;48.076;11.878;2022-09-27T02:18:26;1.20;;;1.13;;
19396;SDS011;9834;48.076;11.878;2022-09-27T02:20:59;2.83;;;1.53;;
19396;SDS011;9834;48.076;11.878;2022-09-27T02:23:32;2.07;;;1.17;;
19396;SDS011;9834;48.076;11.878;2022-09-27T02:26:07;2.50;;;1.47;;
19396;SDS011;9834;48.076;11.878;2022-09-27T02:28:42;1.40;;;1.27;;
19396;SDS011;9834;48.076;11.878;2022-09-27T02:31:13;1.40;;;1.30;;
19396;SDS011;9834;48.076;11.878;2022-09-27T02:33:42;1.43;;;1.30;;
19396;SDS011;9834;48.076;11.878;2022-09-27T02:36:12;1.50;;;1.20;;
19396;SDS011;9834;48.076;11.878;2022-09-27T02:38:41;1.53;;;1.43;;
19396;SDS011;9834;48.076;11.878;2022-09-27T02:41:13;1.77;;;1.30;;
19396;SDS011;9834;48.076;11.878;2022-09-27T02:43:41;1.67;;;1.53;;
19396;SDS011;9834;48.076;11.878;2022-09-27T02:46:14;1.63;;;1.40;;
19396;SDS011;9834;48.076;11.878;2022-09-27T02:48:59;3.90;;;1.30;;
19396;SDS011;9834;48.076;11.878;2022-09-27T02:51:42;1.47;;;1.33;;
19396;SDS011;9834;48.076;11.878;2022-09-27T02:54:17;2.00;;;1.33;;
19396;SDS011;9834;48.076;11.878;2022-09-27T02:56:54;1.97;;;1.43;;
19396;SDS011;9834;48.076;11.878;2022-09-27T02:59:27;1.37;;;1.27;;
19396;SDS011;9834;48.076;11.878;2022-09-27T03:02:03;4.57;;;1.23;;
19396;SDS011;9834;48.076;11.878;2022-09-27T03:04:38;2.77;;;1.40;;
19396;SDS011;9834;48.076;11.878;2022-09-27T03:07:09;2.37;;;1.03;;
19396;SDS011;9834;48.076;11.878;2022-09-27T03:09:40;1.87;;;1.73;;
19396;SDS011;9834;48.076;11.878;2022-09-27T03:12:09;1.87;;;1.30;;
19396;SDS011;9834;48.076;11.878;2022-09-27T03:14:36;1.60;;;1.23;;
19396;SDS011;9834;48.076;11.878;2022-09-27T03:17:03;2.97;;;1.60;;
19396;SDS011;9834;48.076;11.878;2022-09-27T03:19:31;1.63;;;1.40;;
19396;SDS011;9834;48.076;11.878;2022-09-27T03:21:59;1.17;;;1.13;;
19396;SDS011;9834;48.076;11.878;2022-09-27T03:24:26;0.97;;;0.97;;
19396;SDS011;9834;48.076;11.878;2022-09-27T03:26:53;1.90;;;1.63;;
19396;SDS011;9834;48.076;11.878;2022-09-27T03:29:20;1.53;;;1.43;;
19396;SDS011;9834;48.076;11.878;2022-09-27T03:31:47;1.33;;;1.07;;
19396;SDS011;9834;48.076;11.878;2022-09-27T03:34:14;1.70;;;1.53;;
19396;SDS011;9834;48.076;11.878;2022-09-27T03:36:41;1.53;;;1.43;;
19396;SDS011;9834;48.076;11.878;2022-09-27T03:39:10;3.77;;;1.40;;
19396;SDS011;9834;48.076;11.878;2022-09-27T03:41:37;1.20;;;1.10;;
19396;SDS011;9834;48.076;11.878;2022-09-27T03:44:05;1.77;;;1.40;;
19396;SDS011;9834;48.076;11.878;2022-09-27T03:46:32;0.80;;;0.80;;
19396;SDS011;9834;48.076;11.878;2022-09-27T03:48:59;2.30;;;1.50;;
19396;SDS011;9834;48.076;11.878;2022-09-27T03:51:26;1.87;;;1.23;;
19396;SDS011;9834;48.076;11.878;2022-09-27T03:53:53;3.37;;;1.43;;
19396;SDS011;9834;48.076;11.878;2022-09-27T03:56:22;1.70;;;1.17;;
19396;SDS011;9834;48.076;11.878;2022-09-27T03:58:49;1.53;;;1.27;;
19396;SDS011;9834;48.076;11.878;2022-09-27T04:01:16;1.37;;;1.27;;
19396;SDS011;9834;48.076;11.878;2022-09-27T04:03:43;1.00;;;0.97;;
19396;SDS011;9834;48.076;11.878;2022-09-27T04:06:10;1.10;;;1.10;;
19396;SDS011;9834;48.076;11.878;2022-09-27T04:08:42;1.13;;;1.07;;
19396;SDS011;9834;48.076;11.878;2022-09-27T04:11:09;1.37;;;1.27;;
19396;SDS011;9834;48.076;11.878;2022-09-27T04:13:37;1.40;;;1.17;;
19396;SDS011;9834;48.076;11.878;2022-09-27T04:16:04;2.03;;;1.50;;
19396;SDS011;9834;48.076;11.878;2022-09-27T04:18:32;6.73;;;1.80;;
19396;SDS011;9834;48.076;11.878;2022-09-27T04:20:59;1.00;;;1.00;;
19396;SDS011;9834;48.076;11.878;2022-09-27T04:23:26;1.77;;;1.57;;
19396;SDS011;9834;48.076;11.878;2022-09-27T04:25:53;1.67;;;1.40;;
19396;SDS011;9834;48.076;11.878;2022-09-27T04:28:20;0.93;;;0.93;;
19396;SDS011;9834;48.076;11.878;2022-09-27T04:30:49;1.80;;;1.30;;
19396;SDS011;9834;48.076;11.878;2022-09-27T04:33:16;1.73;;;1.60;;
19396;SDS011;9834;48.076;11.878;2022-09-27T04:35:45;1.67;;;1.57;;
19396;SDS011;9834;48.076;11.878;2022-09-27T04:38:30;1.13;;;1.07;;
19396;SDS011;9834;48.076;11.878;2022-09-27T04:40:57;1.63;;;1.30;;
19396;SDS011;9834;48.076;11.878;2022-09-27T04:43:26;4.73;;;1.77;;
19396;SDS011;9834;48.076;11.878;2022-09-27T04:49:20;4.40;;;1.43;;
19396;SDS011;9834;48.076;11.878;2022-09-27T04:51:47;0.90;;;0.90;;
19396;SDS011;9834;48.076;11.878;2022-09-27T04:54:14;1.20;;;1.10;;
19396;SDS011;9834;48.076;11.878;2022-09-27T04:56:41;2.23;;;1.50;;
19396;SDS011;9834;48.076;11.878;2022-09-27T04:59:08;1.50;;;1.40;;
19396;SDS011;9834;48.076;11.878;2022-09-27T05:01:35;0.90;;;0.87;;
19396;SDS011;9834;48.076;11.878;2022-09-27T05:04:02;1.43;;;1.33;;
19396;SDS011;9834;48.076;11.878;2022-09-27T05:06:31;5.37;;;1.47;;
19396;SDS011;9834;48.076;11.878;2022-09-27T05:08:58;2.50;;;1.90;;
19396;SDS011;9834;48.076;11.878;2022-09-27T05:11:25;2.03;;;1.83;;
19396;SDS011;9834;48.076;11.878;2022-09-27T05:13:52;4.43;;;1.77;;
19396;SDS011;9834;48.076;11.878;2022-09-27T05:16:20;2.03;;;1.43;;
19396;SDS011;9834;48.076;11.878;2022-09-27T05:18:47;2.37;;;1.40;;
19396;SDS011;9834;48.076;11.878;2022-09-27T05:21:14;2.40;;;1.60;;
19396;SDS011;9834;48.076;11.878;2022-09-27T05:23:42;2.43;;;1.73;;
19396;SDS011;9834;48.076;11.878;2022-09-27T05:26:09;1.60;;;1.50;;
19396;SDS011;9834;48.076;11.878;2022-09-27T05:28:36;1.47;;;1.37;;
19396;SDS011;9834;48.076;11.878;2022-09-27T05:31:07;1.87;;;1.47;;
19396;SDS011;9834;48.076;11.878;2022-09-27T05:33:35;2.17;;;1.43;;
19396;SDS011;9834;48.076;11.878;2022-09-27T05:36:02;2.70;;;1.70;;
19396;SDS011;9834;48.076;11.878;2022-09-27T05:38:29;1.30;;;1.20;;
19396;SDS011;9834;48.076;11.878;2022-09-27T05:40:58;1.40;;;1.30;;
19396;SDS011;9834;48.076;11.878;2022-09-27T05:43:25;1.93;;;1.40;;
19396;SDS011;9834;48.076;11.878;2022-09-27T05:45:52;2.53;;;1.50;;
19396;SDS011;9834;48.076;11.878;2022-09-27T05:48:19;1.63;;;1.37;;
19396;SDS011;9834;48.076;11.878;2022-09-27T05:50:46;1.20;;;1.10;;
19396;SDS011;9834;48.076;11.878;2022-09-27T05:53:13;2.33;;;1.37;;
19396;SDS011;9834;48.076;11.878;2022-09-27T05:55:40;2.00;;;0.90;;
19396;SDS011;9834;48.076;11.878;2022-09-27T05:58:09;3.40;;;1.17;;
19396;SDS011;9834;48.076;11.878;2022-09-27T06:00:37;2.37;;;1.33;;
19396;SDS011;9834;48.076;11.878;2022-09-27T06:03:05;0.90;;;0.90;;
19396;SDS011;9834;48.076;11.878;2022-09-27T06:05:33;3.13;;;1.73;;
19396;SDS011;9834;48.076;11.878;2022-09-27T06:08:02;3.77;;;1.30;;
19396;SDS011;9834;48.076;11.878;2022-09-27T06:10:31;3.47;;;2.00;;
19396;SDS011;9834;48.076;11.878;2022-09-27T06:12:59;2.63;;;1.70;;
19396;SDS011;9834;48.076;11.878;2022-09-27T06:15:29;1.80;;;1.57;;
19396;SDS011;9834;48.076;11.878;2022-09-27T06:18:01;1.37;;;0.93;;
19396;SDS011;9834;48.076;11.878;2022-09-27T06:20:36;2.10;;;1.23;;
19396;SDS011;9834;48.076;11.878;2022-09-27T06:23:05;1.13;;;0.90;;
19396;SDS011;9834;48.076;11.878;2022-09-27T06:25:34;1.20;;;1.10;;
19396;SDS011;9834;48.076;11.878;2022-09-27T06:28:02;1.63;;;1.30;;
19396;SDS011;9834;48.076;11.878;2022-09-27T06:30:31;1.83;;;1.23;;
19396;SDS011;9834;48.076;11.878;2022-09-27T06:33:01;0.60;;;0.60;;
19396;SDS011;9834;48.076;11.878;2022-09-27T06:35:33;1.20;;;1.13;;
19396;SDS011;9834;48.076;11.878;2022-09-27T06:38:02;0.73;;;0.73;;
19396;SDS011;9834;48.076;11.878;2022-09-27T06:40:30;0.67;;;0.67;;
19396;SDS011;9834;48.076;11.878;2022-09-27T06:43:00;0.47;;;0.47;;
19396;SDS011;9834;48.076;11.878;2022-09-27T06:45:28;0.83;;;0.73;;
19396;SDS011;9834;48.076;11.878;2022-09-27T06:47:57;0.63;;;0.60;;
19396;SDS011;9834;48.076;11.878;2022-09-27T06:50:26;0.70;;;0.70;;
19396;SDS011;9834;48.076;11.878;2022-09-27T06:52:54;0.93;;;0.60;;
19396;SDS011;9834;48.076;11.878;2022-09-27T06:55:21;0.40;;;0.40;;
19396;SDS011;9834;48.076;11.878;2022-09-27T06:57:48;0.60;;;0.60;;
19396;SDS011;9834;48.076;11.878;2022-09-27T07:00:36;0.40;;;0.40;;
19396;SDS011;9834;48.076;11.878;2022-09-27T07:03:05;0.60;;;0.47;;
19396;SDS011;9834;48.076;11.878;2022-09-27T07:05:33;0.40;;;0.40;;
19396;SDS011;9834;48.076;11.878;2022-09-27T07:08:00;0.80;;;0.80;;
19396;SDS011;9834;48.076;11.878;2022-09-27T07:10:27;0.90;;;0.57;;
19396;SDS011;9834;48.076;11.878;2022-09-27T07:12:56;1.57;;;0.90;;
19396;SDS011;9834;48.076;11.878;2022-09-27T07:15:31;1.83;;;0.70;;
19396;SDS011;9834;48.076;11.878;2022-09-27T07:18:00;0.60;;;0.60;;
19396;SDS011;9834;48.076;11.878;2022-09-27T07:20:29;0.73;;;0.60;;
19396;SDS011;9834;48.076;11.878;2022-09-27T07:22:56;1.10;;;0.40;;
19396;SDS011;9834;48.076;11.878;2022-09-27T07:25:24;3.33;;;0.43;;
19396;SDS011;9834;48.076;11.878;2022-09-27T07:27:51;1.07;;;0.63;;
19396;SDS011;9834;48.076;11.878;2022-09-27T07:30:19;0.50;;;0.50;;
19396;SDS011;9834;48.076;11.878;2022-09-27T07:32:47;4.40;;;0.87;;
19396;SDS011;9834;48.076;11.878;2022-09-27T07:35:14;0.60;;;0.60;;
19396;SDS011;9834;48.076;11.878;2022-09-27T07:37:43;1.67;;;0.83;;
19396;SDS011;9834;48.076;11.878;2022-09-27T07:40:10;4.37;;;3.60;;
19396;SDS011;9834;48.076;11.878;2022-09-27T07:42:37;8.30;;;7.47;;
19396;SDS011;9834;48.076;11.878;2022-09-27T07:45:05;1.93;;;1.63;;
19396;SDS011;9834;48.076;11.878;2022-09-27T07:47:33;0.57;;;0.57;;
19396;SDS011;9834;48.076;11.878;2022-09-27T07:50:01;0.37;;;0.37;;
19396;SDS011;9834;48.076;11.878;2022-09-27T07:52:29;0.57;;;0.50;;
19396;SDS011;9834;48.076;11.878;2022-09-27T07:54:57;0.67;;;0.60;;
19396;SDS011;9834;48.076;11.878;2022-09-27T07:57:24;0.63;;;0.57;;
19396;SDS011;9834;48.076;11.878;2022-09-27T07:59:51;1.30;;;0.90;;
19396;SDS011;9834;48.076;11.878;2022-09-27T08:02:18;0.57;;;0.57;;
19396;SDS011;9834;48.076;11.878;2022-09-27T08:04:45;0.60;;;0.40;;
19396;SDS011;9834;48.076;11.878;2022-09-27T08:07:13;0.63;;;0.30;;
19396;SDS011;9834;48.076;11.878;2022-09-27T08:09:40;0.30;;;0.30;;
19396;SDS011;9834;48.076;11.878;2022-09-27T08:12:08;2.07;;;0.33;;
19396;SDS011;9834;48.076;11.878;2022-09-27T08:14:35;1.57;;;0.80;;
19396;SDS011;9834;48.076;11.878;2022-09-27T08:17:02;1.10;;;0.60;;
19396;SDS011;9834;48.076;11.878;2022-09-27T08:19:29;0.40;;;0.40;;
19396;SDS011;9834;48.076;11.878;2022-09-27T08:21:57;0.60;;;0.60;;
19396;SDS011;9834;48.076;11.878;2022-09-27T08:24:24;0.20;;;0.20;;
19396;SDS011;9834;48.076;11.878;2022-09-27T08:26:51;0.30;;;0.30;;
19396;SDS011;9834;48.076;11.878;2022-09-27T08:29:19;0.30;;;0.30;;
19396;SDS011;9834;48.076;11.878;2022-09-27T08:31:49;1.00;;;0.47;;
19396;SDS011;9834;48.076;11.878;2022-09-27T08:34:16;0.53;;;0.40;;
19396;SDS011;9834;48.076;11.878;2022-09-27T08:36:43;0.30;;;0.30;;
19396;SDS011;9834;48.076;11.878;2022-09-27T08:39:10;0.30;;;0.30;;
19396;SDS011;9834;48.076;11.878;2022-09-27T08:41:37;0.27;;;0.20;;
19396;SDS011;9834;48.076;11.878;2022-09-27T08:44:11;0.10;;;0.10;;
19396;SDS011;9834;48.076;11.878;2022-09-27T08:46:52;0.23;;;0.23;;
19396;SDS011;9834;48.076;11.878;2022-09-27T08:49:30;0.10;;;0.10;;
19396;SDS011;9834;48.076;11.878;2022-09-27T08:52:00;0.20;;;0.20;;
19396;SDS011;9834;48.076;11.878;2022-09-27T08:54:32;0.20;;;0.20;;
19396;SDS011;9834;48.076;11.878;2022-09-27T08:57:03;0.33;;;0.33;;
19396;SDS011;9834;48.076;11.878;2022-09-27T08:59:36;0.60;;;0.43;;
19396;SDS011;9834;48.076;11.878;2022-09-27T09:02:12;0.50;;;0.33;;
19396;SDS011;9834;48.076;11.878;2022-09-27T09:04:44;0.40;;;0.40;;
19396;SDS011;9834;48.076;11.878;2022-09-27T09:07:19;0.47;;;0.47;;
19396;SDS011;9834;48.076;11.878;2022-09-27T09:09:58;4.17;;;0.47;;
19396;SDS011;9834;48.076;11.878;2022-09-27T09:12:35;0.30;;;0.30;;
19396;SDS011;9834;48.076;11.878;2022-09-27T09:15:17;0.20;;;0.20;;
19396;SDS011;9834;48.076;11.878;2022-09-27T09:18:03;0.27;;;0.27;;
19396;SDS011;9834;48.076;11.878;2022-09-27T09:20:49;0.37;;;0.37;;
19396;SDS011;9834;48.076;11.878;2022-09-27T09:26:20;0.37;;;0.37;;
19396;SDS011;9834;48.076;11.878;2022-09-27T09:28:58;0.40;;;0.40;;
19396;SDS011;9834;48.076;11.878;2022-09-27T09:31:37;0.20;;;0.20;;
19396;SDS011;9834;48.076;11.878;2022-09-27T09:34:11;0.30;;;0.20;;
19396;SDS011;9834;48.076;11.878;2022-09-27T09:36:45;0.77;;;0.50;;
19396;SDS011;9834;48.076;11.878;2022-09-27T09:39:18;0.30;;;0.30;;
19396;SDS011;9834;48.076;11.878;2022-09-27T09:41:56;0.20;;;0.20;;
19396;SDS011;9834;48.076;11.878;2022-09-27T09:44:33;1.80;;;0.40;;
19396;SDS011;9834;48.076;11.878;2022-09-27T09:47:10;0.27;;;0.27;;
19396;SDS011;9834;48.076;11.878;2022-09-27T09:49:54;1.20;;;0.30;;
19396;SDS011;9834;48.076;11.878;2022-09-27T09:52:26;0.37;;;0.30;;
19396;SDS011;9834;48.076;11.878;2022-09-27T09:55:01;0.50;;;0.50;;
19396;SDS011;9834;48.076;11.878;2022-09-27T09:57:32;0.20;;;0.20;;
19396;SDS011;9834;48.076;11.878;2022-09-27T10:00:05;0.40;;;0.20;;
19396;SDS011;9834;48.076;11.878;2022-09-27T10:02:40;0.27;;;0.27;;
19396;SDS011;9834;48.076;11.878;2022-09-27T10:05:12;0.20;;;0.20;;
19396;SDS011;9834;48.076;11.878;2022-09-27T10:07:41;0.10;;;0.10;;
19396;SDS011;9834;48.076;11.878;2022-09-27T10:10:10;0.20;;;0.20;;
19396;SDS011;9834;48.076;11.878;2022-09-27T10:12:40;0.57;;;0.40;;
19396;SDS011;9834;48.076;11.878;2022-09-27T10:15:11;1.70;;;0.50;;
19396;SDS011;9834;48.076;11.878;2022-09-27T10:17:42;0.30;;;0.30;;
19396;SDS011;9834;48.076;11.878;2022-09-27T10:20:18;0.20;;;0.20;;
19396;SDS011;9834;48.076;11.878;2022-09-27T10:22:53;0.20;;;0.20;;
19396;SDS011;9834;48.076;11.878;2022-09-27T10:25:25;0.10;;;0.10;;
19396;SDS011;9834;48.076;11.878;2022-09-27T10:28:24;0.30;;;0.30;;
19396;SDS011;9834;48.076;11.878;2022-09-27T10:30:57;0.20;;;0.20;;
19396;SDS011;9834;48.076;11.878;2022-09-27T10:33:26;0.40;;;0.20;;
19396;SDS011;9834;48.076;11.878;2022-09-27T10:35:57;0.43;;;0.30;;
19396;SDS011;9834;48.076;11.878;2022-09-27T10:38:25;0.20;;;0.20;;
19396;SDS011;9834;48.076;11.878;2022-09-27T10:40:55;0.20;;;0.20;;
19396;SDS011;9834;48.076;11.878;2022-09-27T10:43:28;0.77;;;0.47;;
19396;SDS011;9834;48.076;11.878;2022-09-27T10:46:02;0.30;;;0.30;;
19396;SDS011;9834;48.076;11.878;2022-09-27T10:48:35;0.57;;;0.33;;
19396;SDS011;9834;48.076;11.878;2022-09-27T10:51:07;0.20;;;0.10;;
19396;SDS011;9834;48.076;11.878;2022-09-27T10:53:49;0.20;;;0.20;;
19396;SDS011;9834;48.076;11.878;2022-09-27T10:56:23;0.40;;;0.33;;
19396;SDS011;9834;48.076;11.878;2022-09-27T10:58:53;0.17;;;0.17;;
19396;SDS011;9834;48.076;11.878;2022-09-27T11:01:21;0.30;;;0.30;;
19396;SDS011;9834;48.076;11.878;2022-09-27T11:03:49;0.43;;;0.30;;
19396;SDS011;9834;48.076;11.878;2022-09-27T11:06:24;0.33;;;0.30;;
19396;SDS011;9834;48.076;11.878;2022-09-27T11:08:56;0.50;;;0.50;;
19396;SDS011;9834;48.076;11.878;2022-09-27T11:11:42;0.30;;;0.30;;
19396;SDS011;9834;48.076;11.878;2022-09-27T11:14:16;0.40;;;0.30;;
19396;SDS011;9834;48.076;11.878;2022-09-27T11:16:47;0.57;;;0.50;;
19396;SDS011;9834;48.076;11.878;2022-09-27T11:19:32;0.30;;;0.30;;
19396;SDS011;9834;48.076;11.878;2022-09-27T11:22:16;0.40;;;0.30;;
19396;SDS011;9834;48.076;11.878;2022-09-27T11:25:11;1.43;;;0.57;;
19396;SDS011;9834;48.076;11.878;2022-09-27T11:27:49;0.40;;;0.40;;
19396;SDS011;9834;48.076;11.878;2022-09-27T11:30:28;0.30;;;0.30;;
19396;SDS011;9834;48.076;11.878;2022-09-27T11:36:00;0.30;;;0.30;;
19396;SDS011;9834;48.076;11.878;2022-09-27T11:38:34;0.50;;;0.40;;
19396;SDS011;9834;48.076;11.878;2022-09-27T11:41:26;0.10;;;0.10;;
19396;SDS011;9834;48.076;11.878;2022-09-27T11:44:08;0.20;;;0.20;;
19396;SDS011;9834;48.076;11.878;2022-09-27T11:46:54;1.60;;;0.50;;
19396;SDS011;9834;48.076;11.878;2022-09-27T11:49:37;0.20;;;0.20;;
19396;SDS011;9834;48.076;11.878;2022-09-27T11:52:29;2.10;;;0.40;;
19396;SDS011;9834;48.076;11.878;2022-09-27T11:55:10;0.10;;;0.10;;
19396;SDS011;9834;48.076;11.878;2022-09-27T11:57:46;0.10;;;0.10;;
19396;SDS011;9834;48.076;11.878;2022-09-27T12:00:21;0.10;;;0.10;;
19396;SDS011;9834;48.076;11.878;2022-09-27T12:06:00;0.10;;;0.10;;
19396;SDS011;9834;48.076;11.878;2022-09-27T12:08:35;0.10;;;0.10;;
19396;SDS011;9834;48.076;11.878;2022-09-27T12:11:17;0.10;;;0.10;;
19396;SDS011;9834;48.076;11.878;2022-09-27T12:13:49;0.27;;;0.27;;
19396;SDS011;9834;48.076;11.878;2022-09-27T12:16:20;0.23;;;0.23;;
19396;SDS011;9834;48.076;11.878;2022-09-27T12:18:51;0.23;;;0.23;;
19396;SDS011;9834;48.076;11.878;2022-09-27T12:21:19;0.97;;;0.50;;
19396;SDS011;9834;48.076;11.878;2022-09-27T12:23:48;1.10;;;0.20;;
19396;SDS011;9834;48.076;11.878;2022-09-27T12:26:19;0.87;;;0.50;;
19396;SDS011;9834;48.076;11.878;2022-09-27T12:28:51;0.10;;;0.10;;
19396;SDS011;9834;48.076;11.878;2022-09-27T12:31:21;3.13;;;0.37;;
19396;SDS011;9834;48.076;11.878;2022-09-27T12:33:56;0.17;;;0.17;;
19396;SDS011;9834;48.076;11.878;2022-09-27T12:36:34;0.27;;;0.27;;
19396;SDS011;9834;48.076;11.878;2022-09-27T12:39:08;1.60;;;0.40;;
19396;SDS011;9834;48.076;11.878;2022-09-27T12:41:43;0.30;;;0.30;;
19396;SDS011;9834;48.076;11.878;2022-09-27T12:44:14;1.30;;;0.40;;
19396;SDS011;9834;48.076;11.878;2022-09-27T12:46:43;0.27;;;0.27;;
19396;SDS011;9834;48.076;11.878;2022-09-27T12:49:25;0.20;;;0.20;;
19396;SDS011;9834;48.076;11.878;2022-09-27T12:52:00;1.07;;;0.50;;
19396;SDS011;9834;48.076;11.878;2022-09-27T12:54:43;0.63;;;0.30;;
19396;SDS011;9834;48.076;11.878;2022-09-27T12:57:30;0.17;;;0.17;;
19396;SDS011;9834;48.076;11.878;2022-09-27T13:00:09;0.20;;;0.20;;
19396;SDS011;9834;48.076;11.878;2022-09-27T13:05:58;0.40;;;0.40;;
19396;SDS011;9834;48.076;11.878;2022-09-27T13:08:50;0.30;;;0.30;;
19396;SDS011;9834;48.076;11.878;2022-09-27T13:11:28;1.43;;;0.50;;
19396;SDS011;9834;48.076;11.878;2022-09-27T13:14:03;0.37;;;0.37;;
19396;SDS011;9834;48.076;11.878;2022-09-27T13:16:40;2.27;;;0.27;;
19396;SDS011;9834;48.076;11.878;2022-09-27T13:19:13;0.20;;;0.20;;
19396;SDS011;9834;48.076;11.878;2022-09-27T13:22:03;0.23;;;0.23;;
19396;SDS011;9834;48.076;11.878;2022-09-27T13:39:13;0.73;;;0.63;;
19396;SDS011;9834;48.076;11.878;2022-09-27T13:41:53;1.23;;;0.40;;
19396;SDS011;9834;48.076;11.878;2022-09-27T13:44:31;0.30;;;0.30;;
19396;SDS011;9834;48.076;11.878;2022-09-27T13:47:17;2.47;;;0.80;;
19396;SDS011;9834;48.076;11.878;2022-09-27T13:49:54;0.40;;;0.30;;
19396;SDS011;9834;48.076;11.878;2022-09-27T13:52:27;1.93;;;0.40;;
19396;SDS011;9834;48.076;11.878;2022-09-27T13:54:58;0.73;;;0.53;;
19396;SDS011;9834;48.076;11.878;2022-09-27T13:57:37;0.40;;;0.40;;
19396;SDS011;9834;48.076;11.878;2022-09-27T14:00:09;1.70;;;0.57;;
19396;SDS011;9834;48.076;11.878;2022-09-27T14:02:41;0.30;;;0.30;;
19396;SDS011;9834;48.076;11.878;2022-09-27T14:05:19;1.07;;;0.30;;
19396;SDS011;9834;48.076;11.878;2022-09-27T14:07:51;0.70;;;0.47;;
19396;SDS011;9834;48.076;11.878;2022-09-27T14:10:19;0.87;;;0.60;;
19396;SDS011;9834;48.076;11.878;2022-09-27T14:12:49;0.90;;;0.70;;
19396;SDS011;9834;48.076;11.878;2022-09-27T14:15:20;0.37;;;0.30;;
19396;SDS011;9834;48.076;11.878;2022-09-27T14:17:49;0.67;;;0.50;;
19396;SDS011;9834;48.076;11.878;2022-09-27T14:20:31;2.57;;;0.70;;
19396;SDS011;9834;48.076;11.878;2022-09-27T14:23:04;0.70;;;0.60;;
19396;SDS011;9834;48.076;11.878;2022-09-27T14:25:32;0.40;;;0.37;;
19396;SDS011;9834;48.076;11.878;2022-09-27T14:27:59;1.23;;;0.50;;
19396;SDS011;9834;48.076;11.878;2022-09-27T14:30:27;0.30;;;0.30;;
19396;SDS011;9834;48.076;11.878;2022-09-27T14:32:55;0.30;;;0.30;;
19396;SDS011;9834;48.076;11.878;2022-09-27T14:35:27;0.20;;;0.20;;
19396;SDS011;9834;48.076;11.878;2022-09-27T14:38:14;1.17;;;0.60;;
19396;SDS011;9834;48.076;11.878;2022-09-27T14:40:53;0.77;;;0.67;;
19396;SDS011;9834;48.076;11.878;2022-09-27T14:43:23;1.00;;;0.37;;
19396;SDS011;9834;48.076;11.878;2022-09-27T14:45:52;0.20;;;0.20;;
19396;SDS011;9834;48.076;11.878;2022-09-27T14:48:26;1.43;;;0.63;;
19396;SDS011;9834;48.076;11.878;2022-09-27T14:50:54;0.63;;;0.57;;
19396;SDS011;9834;48.076;11.878;2022-09-27T14:53:27;0.53;;;0.40;;
19396;SDS011;9834;48.076;11.878;2022-09-27T14:55:56;0.60;;;0.40;;
19396;SDS011;9834;48.076;11.878;2022-09-27T14:58:24;7.23;;;3.27;;
19396;SDS011;9834;48.076;11.878;2022-09-27T15:00:52;0.60;;;0.60;;
19396;SDS011;9834;48.076;11.878;2022-09-27T15:03:21;0.57;;;0.50;;
19396;SDS011;9834;48.076;11.878;2022-09-27T15:05:54;1.30;;;1.20;;
19396;SDS011;9834;48.076;11.878;2022-09-27T15:08:24;0.77;;;0.77;;
19396;SDS011;9834;48.076;11.878;2022-09-27T15:10:57;2.80;;;1.30;;
19396;SDS011;9834;48.076;11.878;2022-09-27T15:13:25;0.70;;;0.60;;
19396;SDS011;9834;48.076;11.878;2022-09-27T15:15:53;1.13;;;0.97;;
19396;SDS011;9834;48.076;11.878;2022-09-27T15:18:31;0.60;;;0.60;;
19396;SDS011;9834;48.076;11.878;2022-09-27T15:21:06;0.60;;;0.60;;
19396;SDS011;9834;48.076;11.878;2022-09-27T15:23:36;0.30;;;0.30;;
19396;SDS011;9834;48.076;11.878;2022-09-27T15:26:06;0.30;;;0.30;;
19396;SDS011;9834;48.076;11.878;2022-09-27T15:28:36;0.20;;;0.20;;
19396;SDS011;9834;48.076;11.878;2022-09-27T15:31:09;4.23;;;0.30;;
19396;SDS011;9834;48.076;11.878;2022-09-27T15:33:37;1.03;;;0.53;;
19396;SDS011;9834;48.076;11.878;2022-09-27T15:36:05;0.47;;;0.47;;
19396;SDS011;9834;48.076;11.878;2022-09-27T15:38:34;0.30;;;0.30;;
19396;SDS011;9834;48.076;11.878;2022-09-27T15:41:05;0.30;;;0.30;;
19396;SDS011;9834;48.076;11.878;2022-09-27T15:43:39;2.43;;;0.57;;
19396;SDS011;9834;48.076;11.878;2022-09-27T15:46:25;0.40;;;0.40;;
19396;SDS011;9834;48.076;11.878;2022-09-27T15:51:45;0.30;;;0.30;;